sensor_id;sensor_type;location;lat;lon;timestamp;P1;durP1;ratioP1;P2;durP2;ratioP2
36283;SDS011;56085;48.910;9.478;2023-08-08T00:00:46;3.20;;;1.40;;
36283;SDS011;56085;48.910;9.478;2023-08-08T00:03:12;2.45;;;1.20;;
36283;SDS011;56085;48.910;9.478;2023-08-08T00:05:37;2.22;;;1.35;;
36283;SDS011;56085;48.910;9.478;2023-08-08T00:08:02;3.30;;;1.73;;
36283;SDS011;56085;48.910;9.478;2023-08-08T00:10:28;2.30;;;1.45;;
36283;SDS011;56085;48.910;9.478;2023-08-08T00:12:53;2.65;;;1.50;;
36283;SDS011;56085;48.910;9.478;2023-08-08T00:15:18;3.60;;;1.20;;
36283;SDS011;56085;48.910;9.478;2023-08-08T00:17:43;2.33;;;1.40;;
36283;SDS011;56085;48.910;9.478;2023-08-08T00:20:09;2.15;;;1.33;;
36283;SDS011;56085;48.910;9.478;2023-08-08T00:22:34;4.03;;;1.95;;
36283;SDS011;56085;48.910;9.478;2023-08-08T00:25:00;2.10;;;1.50;;
36283;SDS011;56085;48.910;9.478;2023-08-08T00:27:25;2.47;;;1.52;;
36283;SDS011;56085;48.910;9.478;2023-08-08T00:29:50;5.32;;;1.52;;
36283;SDS011;56085;48.910;9.478;2023-08-08T00:32:18;3.17;;;1.27;;
36283;SDS011;56085;48.910;9.478;2023-08-08T00:34:43;3.30;;;1.75;;
36283;SDS011;56085;48.910;9.478;2023-08-08T00:37:08;1.52;;;1.25;;
36283;SDS011;56085;48.910;9.478;2023-08-08T00:39:33;4.28;;;1.75;;
36283;SDS011;56085;48.910;9.478;2023-08-08T00:41:59;2.60;;;1.23;;
36283;SDS011;56085;48.910;9.478;2023-08-08T00:44:24;2.60;;;1.30;;
36283;SDS011;56085;48.910;9.478;2023-08-08T00:46:49;1.58;;;0.93;;
36283;SDS011;56085;48.910;9.478;2023-08-08T00:49:15;2.60;;;1.52;;
36283;SDS011;56085;48.910;9.478;2023-08-08T00:51:40;4.60;;;1.27;;
36283;SDS011;56085;48.910;9.478;2023-08-08T00:54:05;3.00;;;1.55;;
36283;SDS011;56085;48.910;9.478;2023-08-08T00:56:32;2.17;;;1.42;;
36283;SDS011;56085;48.910;9.478;2023-08-08T00:58:57;3.75;;;1.55;;
36283;SDS011;56085;48.910;9.478;2023-08-08T01:01:23;3.33;;;1.60;;
36283;SDS011;56085;48.910;9.478;2023-08-08T01:03:48;1.67;;;1.20;;
36283;SDS011;56085;48.910;9.478;2023-08-08T01:09:05;3.92;;;1.30;;
36283;SDS011;56085;48.910;9.478;2023-08-08T01:11:38;2.20;;;1.35;;
36283;SDS011;56085;48.910;9.478;2023-08-08T01:14:03;4.22;;;1.42;;
36283;SDS011;56085;48.910;9.478;2023-08-08T01:16:31;4.43;;;1.30;;
36283;SDS011;56085;48.910;9.478;2023-08-08T01:18:57;2.03;;;1.27;;
36283;SDS011;56085;48.910;9.478;2023-08-08T01:21:24;3.80;;;1.20;;
36283;SDS011;56085;48.910;9.478;2023-08-08T01:23:53;2.15;;;1.30;;
36283;SDS011;56085;48.910;9.478;2023-08-08T01:26:21;2.42;;;1.38;;
36283;SDS011;56085;48.910;9.478;2023-08-08T01:28:48;2.97;;;1.25;;
36283;SDS011;56085;48.910;9.478;2023-08-08T01:31:17;2.15;;;1.23;;
36283;SDS011;56085;48.910;9.478;2023-08-08T01:33:43;2.88;;;1.35;;
36283;SDS011;56085;48.910;9.478;2023-08-08T01:36:13;2.25;;;1.10;;
36283;SDS011;56085;48.910;9.478;2023-08-08T01:38:47;2.53;;;1.50;;
36283;SDS011;56085;48.910;9.478;2023-08-08T01:41:16;2.97;;;1.30;;
36283;SDS011;56085;48.910;9.478;2023-08-08T01:43:43;5.97;;;1.65;;
36283;SDS011;56085;48.910;9.478;2023-08-08T01:46:09;1.48;;;1.17;;
36283;SDS011;56085;48.910;9.478;2023-08-08T01:48:35;2.45;;;1.23;;
36283;SDS011;56085;48.910;9.478;2023-08-08T01:51:01;2.92;;;1.40;;
36283;SDS011;56085;48.910;9.478;2023-08-08T01:53:26;2.58;;;1.35;;
36283;SDS011;56085;48.910;9.478;2023-08-08T01:55:52;2.60;;;1.42;;
36283;SDS011;56085;48.910;9.478;2023-08-08T01:58:17;8.60;;;1.23;;
36283;SDS011;56085;48.910;9.478;2023-08-08T02:00:43;3.78;;;1.70;;
36283;SDS011;56085;48.910;9.478;2023-08-08T02:03:10;4.90;;;1.35;;
36283;SDS011;56085;48.910;9.478;2023-08-08T02:05:35;2.03;;;1.17;;
36283;SDS011;56085;48.910;9.478;2023-08-08T02:08:00;2.47;;;1.45;;
36283;SDS011;56085;48.910;9.478;2023-08-08T02:10:25;3.88;;;1.33;;
36283;SDS011;56085;48.910;9.478;2023-08-08T02:12:51;2.30;;;1.40;;
36283;SDS011;56085;48.910;9.478;2023-08-08T02:15:16;2.65;;;1.38;;
36283;SDS011;56085;48.910;9.478;2023-08-08T02:17:41;3.97;;;1.30;;
36283;SDS011;56085;48.910;9.478;2023-08-08T02:20:07;3.42;;;1.55;;
36283;SDS011;56085;48.910;9.478;2023-08-08T02:22:33;2.25;;;1.48;;
36283;SDS011;56085;48.910;9.478;2023-08-08T02:24:58;6.50;;;1.63;;
36283;SDS011;56085;48.910;9.478;2023-08-08T02:27:24;3.17;;;1.30;;
36283;SDS011;56085;48.910;9.478;2023-08-08T02:29:49;2.42;;;1.40;;
36283;SDS011;56085;48.910;9.478;2023-08-08T02:32:14;2.65;;;1.67;;
36283;SDS011;56085;48.910;9.478;2023-08-08T02:34:39;4.20;;;1.42;;
36283;SDS011;56085;48.910;9.478;2023-08-08T02:37:05;5.63;;;1.58;;
36283;SDS011;56085;48.910;9.478;2023-08-08T02:39:30;3.15;;;1.45;;
36283;SDS011;56085;48.910;9.478;2023-08-08T02:41:55;2.67;;;1.52;;
36283;SDS011;56085;48.910;9.478;2023-08-08T02:44:21;2.90;;;1.20;;
36283;SDS011;56085;48.910;9.478;2023-08-08T02:46:47;2.10;;;1.23;;
36283;SDS011;56085;48.910;9.478;2023-08-08T02:49:12;4.35;;;1.60;;
36283;SDS011;56085;48.910;9.478;2023-08-08T02:51:38;3.88;;;1.40;;
36283;SDS011;56085;48.910;9.478;2023-08-08T02:54:03;3.58;;;1.40;;
36283;SDS011;56085;48.910;9.478;2023-08-08T02:56:28;2.72;;;1.50;;
36283;SDS011;56085;48.910;9.478;2023-08-08T02:58:53;4.88;;;1.55;;
36283;SDS011;56085;48.910;9.478;2023-08-08T03:01:19;2.80;;;1.10;;
36283;SDS011;56085;48.910;9.478;2023-08-08T03:03:44;2.58;;;1.48;;
36283;SDS011;56085;48.910;9.478;2023-08-08T03:06:10;5.82;;;1.45;;
36283;SDS011;56085;48.910;9.478;2023-08-08T03:08:35;2.10;;;1.38;;
36283;SDS011;56085;48.910;9.478;2023-08-08T03:11:00;2.25;;;1.38;;
36283;SDS011;56085;48.910;9.478;2023-08-08T03:13:25;5.68;;;1.98;;
36283;SDS011;56085;48.910;9.478;2023-08-08T03:15:51;3.45;;;1.60;;
36283;SDS011;56085;48.910;9.478;2023-08-08T03:18:16;2.38;;;1.52;;
36283;SDS011;56085;48.910;9.478;2023-08-08T03:20:42;2.72;;;1.50;;
36283;SDS011;56085;48.910;9.478;2023-08-08T03:23:07;2.20;;;1.38;;
36283;SDS011;56085;48.910;9.478;2023-08-08T03:25:32;2.45;;;1.70;;
36283;SDS011;56085;48.910;9.478;2023-08-08T03:27:57;3.85;;;1.73;;
36283;SDS011;56085;48.910;9.478;2023-08-08T03:30:23;3.63;;;1.73;;
36283;SDS011;56085;48.910;9.478;2023-08-08T03:32:48;3.83;;;1.80;;
36283;SDS011;56085;48.910;9.478;2023-08-08T03:35:13;2.30;;;1.50;;
36283;SDS011;56085;48.910;9.478;2023-08-08T03:37:40;2.95;;;1.70;;
36283;SDS011;56085;48.910;9.478;2023-08-08T03:40:05;2.15;;;1.50;;
36283;SDS011;56085;48.910;9.478;2023-08-08T03:42:32;7.03;;;1.27;;
36283;SDS011;56085;48.910;9.478;2023-08-08T03:44:58;4.55;;;1.50;;
36283;SDS011;56085;48.910;9.478;2023-08-08T03:47:23;2.40;;;1.35;;
36283;SDS011;56085;48.910;9.478;2023-08-08T03:49:48;2.92;;;1.52;;
36283;SDS011;56085;48.910;9.478;2023-08-08T03:52:14;6.15;;;1.50;;
36283;SDS011;56085;48.910;9.478;2023-08-08T03:54:39;3.03;;;1.83;;
36283;SDS011;56085;48.910;9.478;2023-08-08T03:57:04;3.85;;;1.60;;
36283;SDS011;56085;48.910;9.478;2023-08-08T03:59:30;4.63;;;1.75;;
36283;SDS011;56085;48.910;9.478;2023-08-08T04:01:55;5.20;;;1.95;;
36283;SDS011;56085;48.910;9.478;2023-08-08T04:04:20;2.63;;;1.50;;
36283;SDS011;56085;48.910;9.478;2023-08-08T04:06:45;3.47;;;1.58;;
36283;SDS011;56085;48.910;9.478;2023-08-08T04:09:11;2.58;;;1.52;;
36283;SDS011;56085;48.910;9.478;2023-08-08T04:11:36;3.75;;;1.75;;
36283;SDS011;56085;48.910;9.478;2023-08-08T04:14:02;3.15;;;1.92;;
36283;SDS011;56085;48.910;9.478;2023-08-08T04:16:27;3.13;;;1.85;;
36283;SDS011;56085;48.910;9.478;2023-08-08T04:18:53;2.63;;;1.60;;
36283;SDS011;56085;48.910;9.478;2023-08-08T04:21:18;3.20;;;1.83;;
36283;SDS011;56085;48.910;9.478;2023-08-08T04:23:43;3.97;;;1.42;;
36283;SDS011;56085;48.910;9.478;2023-08-08T04:26:09;2.85;;;1.75;;
36283;SDS011;56085;48.910;9.478;2023-08-08T04:28:34;8.30;;;1.65;;
36283;SDS011;56085;48.910;9.478;2023-08-08T04:30:59;3.35;;;1.30;;
36283;SDS011;56085;48.910;9.478;2023-08-08T04:33:24;3.08;;;1.52;;
36283;SDS011;56085;48.910;9.478;2023-08-08T04:35:50;4.45;;;1.48;;
36283;SDS011;56085;48.910;9.478;2023-08-08T04:38:15;5.10;;;1.52;;
36283;SDS011;56085;48.910;9.478;2023-08-08T04:40:40;2.30;;;1.25;;
36283;SDS011;56085;48.910;9.478;2023-08-08T04:43:06;3.35;;;1.35;;
36283;SDS011;56085;48.910;9.478;2023-08-08T04:45:31;3.03;;;1.50;;
36283;SDS011;56085;48.910;9.478;2023-08-08T04:47:56;3.30;;;1.65;;
36283;SDS011;56085;48.910;9.478;2023-08-08T04:50:22;5.65;;;2.10;;
36283;SDS011;56085;48.910;9.478;2023-08-08T04:52:48;3.33;;;1.38;;
36283;SDS011;56085;48.910;9.478;2023-08-08T04:55:13;2.67;;;1.45;;
36283;SDS011;56085;48.910;9.478;2023-08-08T04:57:38;3.35;;;1.63;;
36283;SDS011;56085;48.910;9.478;2023-08-08T05:00:04;4.65;;;1.65;;
36283;SDS011;56085;48.910;9.478;2023-08-08T05:02:33;2.78;;;1.60;;
36283;SDS011;56085;48.910;9.478;2023-08-08T05:04:58;3.60;;;1.77;;
36283;SDS011;56085;48.910;9.478;2023-08-08T05:07:25;3.13;;;1.48;;
36283;SDS011;56085;48.910;9.478;2023-08-08T05:09:50;2.17;;;1.48;;
36283;SDS011;56085;48.910;9.478;2023-08-08T05:12:16;3.10;;;1.73;;
36283;SDS011;56085;48.910;9.478;2023-08-08T05:14:42;3.17;;;1.83;;
36283;SDS011;56085;48.910;9.478;2023-08-08T05:17:07;6.03;;;1.88;;
36283;SDS011;56085;48.910;9.478;2023-08-08T05:19:32;7.30;;;1.70;;
36283;SDS011;56085;48.910;9.478;2023-08-08T05:21:57;2.78;;;1.75;;
36283;SDS011;56085;48.910;9.478;2023-08-08T05:24:24;2.95;;;1.50;;
36283;SDS011;56085;48.910;9.478;2023-08-08T05:26:49;2.90;;;1.65;;
36283;SDS011;56085;48.910;9.478;2023-08-08T05:29:14;4.40;;;1.75;;
36283;SDS011;56085;48.910;9.478;2023-08-08T05:31:39;3.30;;;1.48;;
36283;SDS011;56085;48.910;9.478;2023-08-08T05:34:05;3.10;;;1.70;;
36283;SDS011;56085;48.910;9.478;2023-08-08T05:36:30;3.63;;;1.50;;
36283;SDS011;56085;48.910;9.478;2023-08-08T05:38:55;3.55;;;1.70;;
36283;SDS011;56085;48.910;9.478;2023-08-08T05:41:20;3.38;;;1.40;;
36283;SDS011;56085;48.910;9.478;2023-08-08T05:43:46;1.98;;;1.45;;
36283;SDS011;56085;48.910;9.478;2023-08-08T05:46:11;3.55;;;1.60;;
36283;SDS011;56085;48.910;9.478;2023-08-08T05:48:36;3.45;;;1.77;;
36283;SDS011;56085;48.910;9.478;2023-08-08T05:51:01;3.67;;;1.60;;
36283;SDS011;56085;48.910;9.478;2023-08-08T05:53:29;5.97;;;1.63;;
36283;SDS011;56085;48.910;9.478;2023-08-08T05:55:55;3.67;;;1.70;;
36283;SDS011;56085;48.910;9.478;2023-08-08T05:58:20;2.75;;;1.63;;
36283;SDS011;56085;48.910;9.478;2023-08-08T06:00:46;2.88;;;1.48;;
36283;SDS011;56085;48.910;9.478;2023-08-08T06:03:11;4.78;;;1.50;;
36283;SDS011;56085;48.910;9.478;2023-08-08T06:05:36;2.22;;;1.27;;
36283;SDS011;56085;48.910;9.478;2023-08-08T06:08:02;4.03;;;1.52;;
36283;SDS011;56085;48.910;9.478;2023-08-08T06:10:29;2.15;;;1.45;;
36283;SDS011;56085;48.910;9.478;2023-08-08T06:12:54;2.85;;;1.52;;
36283;SDS011;56085;48.910;9.478;2023-08-08T06:15:19;3.30;;;1.60;;
36283;SDS011;56085;48.910;9.478;2023-08-08T06:17:45;3.50;;;1.60;;
36283;SDS011;56085;48.910;9.478;2023-08-08T06:20:10;3.33;;;1.83;;
36283;SDS011;56085;48.910;9.478;2023-08-08T06:22:36;2.67;;;1.08;;
36283;SDS011;56085;48.910;9.478;2023-08-08T06:25:01;2.20;;;1.13;;
36283;SDS011;56085;48.910;9.478;2023-08-08T06:27:27;3.17;;;1.30;;
36283;SDS011;56085;48.910;9.478;2023-08-08T06:29:52;1.55;;;0.88;;
36283;SDS011;56085;48.910;9.478;2023-08-08T06:32:17;2.33;;;1.10;;
36283;SDS011;56085;48.910;9.478;2023-08-08T06:34:43;5.18;;;1.20;;
36283;SDS011;56085;48.910;9.478;2023-08-08T06:37:08;3.95;;;1.52;;
36283;SDS011;56085;48.910;9.478;2023-08-08T06:39:33;1.40;;;1.05;;
36283;SDS011;56085;48.910;9.478;2023-08-08T06:41:59;1.95;;;1.10;;
36283;SDS011;56085;48.910;9.478;2023-08-08T06:44:25;2.13;;;1.13;;
36283;SDS011;56085;48.910;9.478;2023-08-08T06:46:50;2.85;;;1.13;;
36283;SDS011;56085;48.910;9.478;2023-08-08T06:49:16;3.22;;;1.42;;
36283;SDS011;56085;48.910;9.478;2023-08-08T06:51:41;2.33;;;1.17;;
36283;SDS011;56085;48.910;9.478;2023-08-08T06:54:06;7.35;;;1.75;;
36283;SDS011;56085;48.910;9.478;2023-08-08T06:56:32;3.85;;;1.30;;
36283;SDS011;56085;48.910;9.478;2023-08-08T06:58:58;2.90;;;1.30;;
36283;SDS011;56085;48.910;9.478;2023-08-08T07:01:23;2.55;;;1.10;;
36283;SDS011;56085;48.910;9.478;2023-08-08T07:03:48;2.00;;;1.17;;
36283;SDS011;56085;48.910;9.478;2023-08-08T07:06:16;4.60;;;1.15;;
36283;SDS011;56085;48.910;9.478;2023-08-08T07:08:42;1.33;;;0.82;;
36283;SDS011;56085;48.910;9.478;2023-08-08T07:11:08;4.32;;;1.40;;
36283;SDS011;56085;48.910;9.478;2023-08-08T07:13:33;2.22;;;1.02;;
36283;SDS011;56085;48.910;9.478;2023-08-08T07:15:58;3.08;;;1.23;;
36283;SDS011;56085;48.910;9.478;2023-08-08T07:18:24;1.52;;;0.90;;
36283;SDS011;56085;48.910;9.478;2023-08-08T07:20:49;2.95;;;0.98;;
36283;SDS011;56085;48.910;9.478;2023-08-08T07:23:14;1.95;;;1.02;;
36283;SDS011;56085;48.910;9.478;2023-08-08T07:25:41;1.63;;;1.00;;
36283;SDS011;56085;48.910;9.478;2023-08-08T07:28:06;3.65;;;1.45;;
36283;SDS011;56085;48.910;9.478;2023-08-08T07:30:31;2.55;;;1.10;;
36283;SDS011;56085;48.910;9.478;2023-08-08T07:32:57;2.45;;;1.05;;
36283;SDS011;56085;48.910;9.478;2023-08-08T07:35:22;1.92;;;1.00;;
36283;SDS011;56085;48.910;9.478;2023-08-08T07:37:47;2.83;;;0.88;;
36283;SDS011;56085;48.910;9.478;2023-08-08T07:40:13;2.33;;;1.00;;
36283;SDS011;56085;48.910;9.478;2023-08-08T07:42:45;2.17;;;0.90;;
36283;SDS011;56085;48.910;9.478;2023-08-08T07:45:11;3.15;;;0.90;;
36283;SDS011;56085;48.910;9.478;2023-08-08T07:47:37;2.75;;;1.08;;
36283;SDS011;56085;48.910;9.478;2023-08-08T07:50:02;2.72;;;1.10;;
36283;SDS011;56085;48.910;9.478;2023-08-08T07:52:28;6.75;;;1.13;;
36283;SDS011;56085;48.910;9.478;2023-08-08T07:54:53;1.80;;;0.88;;
36283;SDS011;56085;48.910;9.478;2023-08-08T07:57:18;1.77;;;1.15;;
36283;SDS011;56085;48.910;9.478;2023-08-08T07:59:44;2.42;;;1.23;;
36283;SDS011;56085;48.910;9.478;2023-08-08T08:02:09;1.20;;;0.88;;
36283;SDS011;56085;48.910;9.478;2023-08-08T08:04:35;2.60;;;1.02;;
36283;SDS011;56085;48.910;9.478;2023-08-08T08:07:00;2.78;;;1.00;;
36283;SDS011;56085;48.910;9.478;2023-08-08T08:09:25;1.77;;;0.77;;
36283;SDS011;56085;48.910;9.478;2023-08-08T08:11:51;2.20;;;0.80;;
36283;SDS011;56085;48.910;9.478;2023-08-08T08:14:16;2.70;;;0.73;;
36283;SDS011;56085;48.910;9.478;2023-08-08T08:16:41;3.35;;;1.13;;
36283;SDS011;56085;48.910;9.478;2023-08-08T08:19:07;1.73;;;0.95;;
36283;SDS011;56085;48.910;9.478;2023-08-08T08:21:32;1.65;;;0.80;;
36283;SDS011;56085;48.910;9.478;2023-08-08T08:23:57;2.03;;;1.00;;
36283;SDS011;56085;48.910;9.478;2023-08-08T08:26:23;2.35;;;0.90;;
36283;SDS011;56085;48.910;9.478;2023-08-08T08:28:48;2.20;;;1.00;;
36283;SDS011;56085;48.910;9.478;2023-08-08T08:31:13;2.30;;;1.10;;
36283;SDS011;56085;48.910;9.478;2023-08-08T08:33:38;2.78;;;1.02;;
36283;SDS011;56085;48.910;9.478;2023-08-08T08:36:04;2.75;;;1.20;;
36283;SDS011;56085;48.910;9.478;2023-08-08T08:38:29;2.72;;;1.15;;
36283;SDS011;56085;48.910;9.478;2023-08-08T08:40:56;3.47;;;1.10;;
36283;SDS011;56085;48.910;9.478;2023-08-08T08:43:21;2.25;;;1.15;;
36283;SDS011;56085;48.910;9.478;2023-08-08T08:45:49;2.67;;;1.30;;
36283;SDS011;56085;48.910;9.478;2023-08-08T08:48:16;2.40;;;1.10;;
36283;SDS011;56085;48.910;9.478;2023-08-08T08:50:44;3.38;;;1.10;;
36283;SDS011;56085;48.910;9.478;2023-08-08T08:53:12;7.13;;;1.20;;
36283;SDS011;56085;48.910;9.478;2023-08-08T08:55:38;15.65;;;1.48;;
36283;SDS011;56085;48.910;9.478;2023-08-08T08:58:04;1.88;;;0.80;;
36283;SDS011;56085;48.910;9.478;2023-08-08T09:00:30;2.88;;;0.93;;
36283;SDS011;56085;48.910;9.478;2023-08-08T09:02:56;2.85;;;1.10;;
36283;SDS011;56085;48.910;9.478;2023-08-08T09:05:21;1.58;;;0.90;;
36283;SDS011;56085;48.910;9.478;2023-08-08T09:07:49;2.20;;;1.20;;
36283;SDS011;56085;48.910;9.478;2023-08-08T09:10:16;2.40;;;1.00;;
36283;SDS011;56085;48.910;9.478;2023-08-08T09:12:42;1.67;;;0.95;;
36283;SDS011;56085;48.910;9.478;2023-08-08T09:15:07;2.22;;;1.08;;
36283;SDS011;56085;48.910;9.478;2023-08-08T09:17:35;5.47;;;1.70;;
36283;SDS011;56085;48.910;9.478;2023-08-08T09:20:01;1.88;;;0.90;;
36283;SDS011;56085;48.910;9.478;2023-08-08T09:22:26;3.58;;;1.08;;
36283;SDS011;56085;48.910;9.478;2023-08-08T09:24:53;4.20;;;1.10;;
36283;SDS011;56085;48.910;9.478;2023-08-08T09:27:20;5.80;;;1.20;;
36283;SDS011;56085;48.910;9.478;2023-08-08T09:29:46;6.65;;;1.20;;
36283;SDS011;56085;48.910;9.478;2023-08-08T09:32:11;4.80;;;0.90;;
36283;SDS011;56085;48.910;9.478;2023-08-08T09:34:40;3.40;;;1.27;;
36283;SDS011;56085;48.910;9.478;2023-08-08T09:37:07;1.75;;;0.93;;
36283;SDS011;56085;48.910;9.478;2023-08-08T09:39:32;2.75;;;1.33;;
36283;SDS011;56085;48.910;9.478;2023-08-08T09:41:58;2.60;;;0.93;;
36283;SDS011;56085;48.910;9.478;2023-08-08T09:44:26;2.22;;;0.98;;
36283;SDS011;56085;48.910;9.478;2023-08-08T09:46:54;4.72;;;1.00;;
36283;SDS011;56085;48.910;9.478;2023-08-08T09:49:20;1.60;;;0.90;;
36283;SDS011;56085;48.910;9.478;2023-08-08T09:51:46;2.45;;;1.10;;
36283;SDS011;56085;48.910;9.478;2023-08-08T09:54:13;1.95;;;0.95;;
36283;SDS011;56085;48.910;9.478;2023-08-08T09:56:39;2.65;;;0.93;;
36283;SDS011;56085;48.910;9.478;2023-08-08T09:59:05;2.20;;;1.00;;
36283;SDS011;56085;48.910;9.478;2023-08-08T10:01:31;1.38;;;0.77;;
36283;SDS011;56085;48.910;9.478;2023-08-08T10:03:57;2.00;;;0.98;;
36283;SDS011;56085;48.910;9.478;2023-08-08T10:06:22;3.85;;;1.05;;
36283;SDS011;56085;48.910;9.478;2023-08-08T10:08:48;2.40;;;0.93;;
36283;SDS011;56085;48.910;9.478;2023-08-08T10:11:15;3.33;;;1.00;;
36283;SDS011;56085;48.910;9.478;2023-08-08T10:13:47;2.55;;;1.20;;
36283;SDS011;56085;48.910;9.478;2023-08-08T10:16:15;2.53;;;0.80;;
36283;SDS011;56085;48.910;9.478;2023-08-08T10:18:42;3.30;;;1.40;;
36283;SDS011;56085;48.910;9.478;2023-08-08T10:21:07;2.20;;;1.00;;
36283;SDS011;56085;48.910;9.478;2023-08-08T10:23:38;7.68;;;1.23;;
36283;SDS011;56085;48.910;9.478;2023-08-08T10:26:04;4.53;;;1.10;;
36283;SDS011;56085;48.910;9.478;2023-08-08T10:28:31;3.30;;;1.08;;
36283;SDS011;56085;48.910;9.478;2023-08-08T10:31:00;2.88;;;0.90;;
36283;SDS011;56085;48.910;9.478;2023-08-08T10:33:48;3.47;;;1.25;;
36283;SDS011;56085;48.910;9.478;2023-08-08T10:36:12;2.67;;;1.00;;
36283;SDS011;56085;48.910;9.478;2023-08-08T10:41:08;1.60;;;0.82;;
36283;SDS011;56085;48.910;9.478;2023-08-08T10:43:46;3.40;;;1.20;;
36283;SDS011;56085;48.910;9.478;2023-08-08T10:46:26;1.92;;;1.08;;
36283;SDS011;56085;48.910;9.478;2023-08-08T10:48:54;1.75;;;0.90;;
36283;SDS011;56085;48.910;9.478;2023-08-08T10:51:21;1.67;;;1.05;;
36283;SDS011;56085;48.910;9.478;2023-08-08T10:53:50;2.67;;;1.08;;
36283;SDS011;56085;48.910;9.478;2023-08-08T10:56:17;1.77;;;0.90;;
36283;SDS011;56085;48.910;9.478;2023-08-08T10:58:47;3.72;;;0.98;;
36283;SDS011;56085;48.910;9.478;2023-08-08T11:01:13;3.83;;;1.10;;
36283;SDS011;56085;48.910;9.478;2023-08-08T11:03:40;1.17;;;0.70;;
36283;SDS011;56085;48.910;9.478;2023-08-08T11:06:06;3.28;;;0.90;;
36283;SDS011;56085;48.910;9.478;2023-08-08T11:08:33;1.52;;;0.80;;
36283;SDS011;56085;48.910;9.478;2023-08-08T11:11:00;3.30;;;0.90;;
36283;SDS011;56085;48.910;9.478;2023-08-08T11:13:25;2.10;;;0.90;;
36283;SDS011;56085;48.910;9.478;2023-08-08T11:15:51;2.08;;;1.13;;
36283;SDS011;56085;48.910;9.478;2023-08-08T11:18:17;1.92;;;0.73;;
36283;SDS011;56085;48.910;9.478;2023-08-08T11:20:42;2.25;;;0.80;;
36283;SDS011;56085;48.910;9.478;2023-08-08T11:23:09;1.70;;;1.00;;
36283;SDS011;56085;48.910;9.478;2023-08-08T11:25:36;2.13;;;1.10;;
36283;SDS011;56085;48.910;9.478;2023-08-08T11:28:04;1.70;;;0.60;;
36283;SDS011;56085;48.910;9.478;2023-08-08T11:30:30;2.17;;;0.90;;
36283;SDS011;56085;48.910;9.478;2023-08-08T11:32:59;4.25;;;0.95;;
36283;SDS011;56085;48.910;9.478;2023-08-08T11:35:25;2.50;;;1.00;;
36283;SDS011;56085;48.910;9.478;2023-08-08T11:37:52;3.25;;;0.90;;
36283;SDS011;56085;48.910;9.478;2023-08-08T11:40:19;2.00;;;0.80;;
36283;SDS011;56085;48.910;9.478;2023-08-08T11:42:46;1.52;;;0.82;;
36283;SDS011;56085;48.910;9.478;2023-08-08T11:45:12;3.33;;;1.08;;
36283;SDS011;56085;48.910;9.478;2023-08-08T11:47:38;5.18;;;1.48;;
36283;SDS011;56085;48.910;9.478;2023-08-08T11:50:05;2.72;;;1.00;;
36283;SDS011;56085;48.910;9.478;2023-08-08T11:52:31;4.05;;;1.30;;
36283;SDS011;56085;48.910;9.478;2023-08-08T11:55:00;1.40;;;0.90;;
36283;SDS011;56085;48.910;9.478;2023-08-08T11:57:29;1.45;;;0.80;;
36283;SDS011;56085;48.910;9.478;2023-08-08T11:59:57;3.70;;;1.20;;
36283;SDS011;56085;48.910;9.478;2023-08-08T12:02:22;3.42;;;0.80;;
36283;SDS011;56085;48.910;9.478;2023-08-08T12:04:48;0.93;;;0.60;;
36283;SDS011;56085;48.910;9.478;2023-08-08T12:07:14;3.30;;;0.75;;
36283;SDS011;56085;48.910;9.478;2023-08-08T12:09:39;2.78;;;0.90;;
36283;SDS011;56085;48.910;9.478;2023-08-08T12:12:05;2.88;;;0.70;;
36283;SDS011;56085;48.910;9.478;2023-08-08T12:14:36;1.50;;;0.90;;
36283;SDS011;56085;48.910;9.478;2023-08-08T12:17:02;1.33;;;0.90;;
36283;SDS011;56085;48.910;9.478;2023-08-08T12:19:28;1.95;;;1.00;;
36283;SDS011;56085;48.910;9.478;2023-08-08T12:21:53;1.55;;;0.75;;
36283;SDS011;56085;48.910;9.478;2023-08-08T12:24:19;2.00;;;0.80;;
36283;SDS011;56085;48.910;9.478;2023-08-08T12:26:44;1.42;;;0.73;;
36283;SDS011;56085;48.910;9.478;2023-08-08T12:29:10;2.33;;;0.95;;
36283;SDS011;56085;48.910;9.478;2023-08-08T12:31:35;2.20;;;1.00;;
36283;SDS011;56085;48.910;9.478;2023-08-08T12:34:00;3.90;;;1.02;;
36283;SDS011;56085;48.910;9.478;2023-08-08T12:36:26;1.65;;;0.80;;
36283;SDS011;56085;48.910;9.478;2023-08-08T12:38:51;1.33;;;0.90;;
36283;SDS011;56085;48.910;9.478;2023-08-08T12:41:16;1.48;;;0.82;;
36283;SDS011;56085;48.910;9.478;2023-08-08T12:43:42;5.22;;;1.10;;
36283;SDS011;56085;48.910;9.478;2023-08-08T12:46:07;2.15;;;0.90;;
36283;SDS011;56085;48.910;9.478;2023-08-08T12:48:32;2.95;;;1.13;;
36283;SDS011;56085;48.910;9.478;2023-08-08T12:50:58;2.90;;;0.90;;
36283;SDS011;56085;48.910;9.478;2023-08-08T12:53:23;1.60;;;0.90;;
36283;SDS011;56085;48.910;9.478;2023-08-08T12:55:48;4.60;;;1.00;;
36283;SDS011;56085;48.910;9.478;2023-08-08T12:58:14;1.75;;;0.90;;
36283;SDS011;56085;48.910;9.478;2023-08-08T13:00:39;2.45;;;0.88;;
36283;SDS011;56085;48.910;9.478;2023-08-08T13:03:04;1.58;;;0.93;;
36283;SDS011;56085;48.910;9.478;2023-08-08T13:05:30;3.80;;;0.80;;
36283;SDS011;56085;48.910;9.478;2023-08-08T13:07:55;1.38;;;0.70;;
36283;SDS011;56085;48.910;9.478;2023-08-08T13:10:20;2.33;;;1.02;;
36283;SDS011;56085;48.910;9.478;2023-08-08T13:12:46;1.77;;;1.00;;
36283;SDS011;56085;48.910;9.478;2023-08-08T13:15:12;2.97;;;0.93;;
36283;SDS011;56085;48.910;9.478;2023-08-08T13:17:38;0.93;;;0.68;;
36283;SDS011;56085;48.910;9.478;2023-08-08T13:20:03;2.58;;;0.70;;
36283;SDS011;56085;48.910;9.478;2023-08-08T13:22:29;2.25;;;0.95;;
36283;SDS011;56085;48.910;9.478;2023-08-08T13:24:54;1.40;;;0.90;;
36283;SDS011;56085;48.910;9.478;2023-08-08T13:27:20;2.60;;;0.90;;
36283;SDS011;56085;48.910;9.478;2023-08-08T13:29:45;2.67;;;1.00;;
36283;SDS011;56085;48.910;9.478;2023-08-08T13:32:10;2.83;;;0.90;;
36283;SDS011;56085;48.910;9.478;2023-08-08T13:34:36;1.77;;;0.80;;
36283;SDS011;56085;48.910;9.478;2023-08-08T13:37:01;2.55;;;0.98;;
36283;SDS011;56085;48.910;9.478;2023-08-08T13:39:26;1.23;;;0.53;;
36283;SDS011;56085;48.910;9.478;2023-08-08T13:41:52;2.20;;;0.95;;
36283;SDS011;56085;48.910;9.478;2023-08-08T13:44:17;2.13;;;0.88;;
36283;SDS011;56085;48.910;9.478;2023-08-08T13:46:43;1.85;;;0.70;;
36283;SDS011;56085;48.910;9.478;2023-08-08T13:49:08;3.95;;;0.98;;
36283;SDS011;56085;48.910;9.478;2023-08-08T13:51:33;1.23;;;0.70;;
36283;SDS011;56085;48.910;9.478;2023-08-08T13:53:59;1.73;;;0.83;;
36283;SDS011;56085;48.910;9.478;2023-08-08T13:56:24;1.20;;;0.80;;
36283;SDS011;56085;48.910;9.478;2023-08-08T13:58:49;2.23;;;1.00;;
36283;SDS011;56085;48.910;9.478;2023-08-08T14:01:14;2.28;;;0.85;;
36283;SDS011;56085;48.910;9.478;2023-08-08T14:03:40;1.40;;;0.80;;
36283;SDS011;56085;48.910;9.478;2023-08-08T14:06:05;1.35;;;0.77;;
36283;SDS011;56085;48.910;9.478;2023-08-08T14:08:31;1.95;;;0.80;;
36283;SDS011;56085;48.910;9.478;2023-08-08T14:10:56;4.53;;;1.30;;
36283;SDS011;56085;48.910;9.478;2023-08-08T14:13:22;2.22;;;0.90;;
36283;SDS011;56085;48.910;9.478;2023-08-08T14:15:47;2.53;;;0.82;;
36283;SDS011;56085;48.910;9.478;2023-08-08T14:18:13;1.20;;;0.77;;
36283;SDS011;56085;48.910;9.478;2023-08-08T14:20:38;1.33;;;0.80;;
36283;SDS011;56085;48.910;9.478;2023-08-08T14:23:03;1.77;;;0.73;;
36283;SDS011;56085;48.910;9.478;2023-08-08T14:25:29;0.65;;;0.47;;
36283;SDS011;56085;48.910;9.478;2023-08-08T14:27:54;2.60;;;0.80;;
36283;SDS011;56085;48.910;9.478;2023-08-08T14:30:21;3.30;;;0.70;;
36283;SDS011;56085;48.910;9.478;2023-08-08T14:32:47;3.45;;;1.00;;
36283;SDS011;56085;48.910;9.478;2023-08-08T14:35:12;2.80;;;0.85;;
36283;SDS011;56085;48.910;9.478;2023-08-08T14:37:37;1.02;;;0.80;;
36283;SDS011;56085;48.910;9.478;2023-08-08T14:40:03;1.40;;;0.90;;
36283;SDS011;56085;48.910;9.478;2023-08-08T14:42:30;6.55;;;0.93;;
36283;SDS011;56085;48.910;9.478;2023-08-08T14:44:56;1.67;;;0.90;;